createdAt,value
2018-12-31T08:19:39.445Z,5.86
2018-12-31T08:24:45.344Z,5.97
2018-12-31T08:29:51.395Z,6.34
2018-12-31T08:34:57.213Z,6.39
2018-12-31T08:40:05.372Z,6.39
2018-12-31T08:45:11.387Z,6.37
2018-12-31T08:50:23.222Z,6.19
2018-12-31T08:55:29.355Z,6.64
2018-12-31T09:00:35.485Z,6.56
2018-12-31T09:05:41.596Z,6.01
2018-12-31T09:10:47.491Z,6.06
2018-12-31T09:15:53.305Z,6.20
2018-12-31T09:20:59.136Z,6.37
2018-12-31T09:26:07.291Z,5.93
2018-12-31T09:31:15.425Z,6.15
2018-12-31T09:36:23.290Z,5.98
2018-12-31T09:41:28.916Z,6.36
2018-12-31T09:51:40.377Z,6.31
2018-12-31T09:56:47.626Z,6.04
2018-12-31T10:01:56.842Z,6.45
2018-12-31T10:12:09.668Z,6.73
2018-12-31T10:17:15.499Z,7.03
2018-12-31T10:22:21.448Z,7.09
2018-12-31T10:27:27.343Z,7.01
2018-12-31T10:32:35.350Z,6.97
2018-12-31T10:37:41.174Z,7.04
2018-12-31T10:42:47.259Z,7.37
2018-12-31T10:47:58.236Z,6.81
2018-12-31T10:53:05.942Z,6.59
2018-12-31T10:58:12.420Z,6.38
2018-12-31T11:04:52.318Z,6.76
2018-12-31T11:09:58.568Z,6.90
2018-12-31T11:15:07.746Z,7.35
2018-12-31T11:20:14.023Z,7.09
2018-12-31T11:25:19.864Z,7.41
2018-12-31T11:30:28.231Z,7.21
2018-12-31T11:35:35.372Z,7.33
2018-12-31T11:40:41.845Z,7.15
2018-12-31T11:45:51.354Z,7.05
2018-12-31T11:50:57.245Z,6.73
2018-12-31T11:56:04.942Z,6.86
2018-12-31T12:06:18.504Z,6.66
2018-12-31T12:11:25.822Z,6.59
2018-12-31T12:16:31.683Z,6.96
2018-12-31T12:21:38.073Z,7.44
2018-12-31T12:26:43.974Z,7.46
2018-12-31T12:31:49.914Z,7.55
2018-12-31T12:36:56.400Z,7.65
2018-12-31T12:42:03.761Z,7.38
2018-12-31T12:47:09.692Z,7.55
2018-12-31T12:52:15.860Z,7.33
2018-12-31T12:57:23.016Z,7.57
2018-12-31T13:02:28.859Z,7.83
2018-12-31T13:07:34.910Z,7.49
2018-12-31T13:12:40.756Z,7.68
2018-12-31T13:17:46.677Z,7.65
2018-12-31T13:22:52.543Z,7.82
2018-12-31T13:27:58.412Z,7.43
2018-12-31T13:33:04.269Z,7.64
2018-12-31T13:38:10.142Z,7.48
2018-12-31T13:43:16.042Z,7.53
2018-12-31T13:48:22.327Z,7.63
2018-12-31T13:58:32.940Z,7.39
2018-12-31T14:03:38.762Z,7.67
2018-12-31T14:08:44.639Z,7.84
2018-12-31T14:13:50.859Z,7.73
2018-12-31T14:18:58.572Z,7.64
2018-12-31T14:24:06.143Z,7.71
2018-12-31T14:29:12.352Z,7.62
2018-12-31T14:34:18.280Z,7.78
2018-12-31T14:39:24.695Z,7.77
2018-12-31T14:44:36.123Z,7.60
2018-12-31T14:49:42.200Z,7.20
2018-12-31T14:54:48.077Z,7.35
2018-12-31T14:59:54.809Z,7.09
2018-12-31T15:05:02.089Z,7.47
2018-12-31T15:10:09.723Z,7.52
2018-12-31T15:15:16.685Z,7.43
2018-12-31T15:20:23.555Z,7.53
2018-12-31T15:25:30.680Z,7.42
2018-12-31T15:30:36.920Z,7.49
2018-12-31T15:35:43.055Z,7.66
2018-12-31T15:40:48.822Z,7.46
2018-12-31T15:45:56.267Z,7.53
2018-12-31T15:51:02.885Z,7.31
2018-12-31T15:56:09.132Z,7.47
2018-12-31T16:01:15.436Z,7.59
2018-12-31T16:06:21.532Z,7.41
2018-12-31T16:11:30.274Z,7.27
2018-12-31T16:21:41.880Z,7.29
2018-12-31T16:26:49.366Z,7.59
2018-12-31T16:31:55.163Z,7.44
2018-12-31T16:42:09.209Z,7.38
2018-12-31T16:47:15.075Z,7.52
2018-12-31T16:52:20.873Z,7.33
2018-12-31T16:57:26.916Z,7.47
2018-12-31T17:02:33.309Z,7.48
2018-12-31T17:07:39.606Z,7.37
2018-12-31T17:12:45.428Z,6.96
2018-12-31T17:17:51.598Z,7.15
2018-12-31T17:22:59.944Z,7.07
2018-12-31T17:28:07.350Z,7.19
2018-12-31T17:33:13.213Z,7.39
2018-12-31T17:38:22.447Z,7.40
2018-12-31T17:43:28.480Z,7.21
2018-12-31T17:48:37.604Z,7.12
2018-12-31T17:53:44.043Z,7.12
2018-12-31T17:58:55.136Z,7.36
2018-12-31T18:04:00.565Z,6.82
2018-12-31T18:09:08.377Z,7.19
2018-12-31T18:14:16.444Z,7.15
2018-12-31T18:19:21.889Z,7.26
2018-12-31T18:24:27.764Z,7.39
2018-12-31T18:29:35.926Z,7.64
2018-12-31T18:34:41.773Z,7.38
2018-12-31T18:39:49.243Z,7.59
2018-12-31T18:44:56.003Z,7.45
2018-12-31T18:50:01.976Z,7.63
2018-12-31T18:55:09.476Z,7.44
2018-12-31T19:00:15.424Z,7.14
2018-12-31T19:05:22.018Z,7.34
2018-12-31T19:10:27.995Z,7.44
2018-12-31T19:15:33.919Z,7.60
2018-12-31T19:20:39.676Z,7.45
2018-12-31T19:25:45.498Z,7.44
2018-12-31T19:30:53.956Z,7.39
2018-12-31T19:36:00.086Z,7.37
2018-12-31T19:41:08.905Z,7.47
2018-12-31T19:46:15.281Z,7.52
2018-12-31T19:51:21.637Z,7.22
2018-12-31T19:56:27.429Z,7.30
2018-12-31T20:01:34.183Z,7.30
2018-12-31T20:06:40.442Z,7.72
2018-12-31T20:11:47.058Z,7.31
2018-12-31T20:21:57.415Z,7.44
2018-12-31T20:27:03.514Z,7.67
2018-12-31T20:32:09.586Z,7.75
2018-12-31T20:37:15.789Z,7.43
2018-12-31T20:42:21.740Z,7.64
2018-12-31T20:47:27.531Z,7.77
2018-12-31T20:52:33.458Z,7.76
2018-12-31T20:57:39.478Z,7.49
2018-12-31T21:02:45.584Z,7.64
2018-12-31T21:07:51.709Z,7.50
2018-12-31T21:12:57.915Z,7.76
2018-12-31T21:18:03.840Z,7.57
2018-12-31T21:23:12.625Z,7.38
2018-12-31T21:28:19.964Z,7.68
2018-12-31T21:33:25.720Z,7.50
2018-12-31T21:43:35.980Z,7.50
2018-12-31T21:48:41.888Z,7.60
2018-12-31T21:53:49.249Z,7.66
2018-12-31T21:58:55.320Z,7.50
2018-12-31T22:04:01.171Z,7.69
2018-12-31T22:09:08.588Z,7.52
2018-12-31T22:14:14.708Z,7.80
2018-12-31T22:19:21.926Z,7.35
2018-12-31T22:24:27.724Z,7.77
2018-12-31T22:29:33.831Z,7.67
2018-12-31T22:34:39.738Z,7.42
2018-12-31T22:39:45.799Z,7.68
2018-12-31T22:44:51.937Z,7.74
2018-12-31T22:49:57.827Z,7.70
2018-12-31T22:55:08.184Z,7.65
2018-12-31T23:00:14.532Z,7.73
2018-12-31T23:05:23.859Z,7.80
2018-12-31T23:10:29.856Z,7.51
2018-12-31T23:15:37.665Z,7.81
2018-12-31T23:20:43.533Z,7.73
2018-12-31T23:25:49.394Z,7.92
2018-12-31T23:30:56.534Z,7.89
2018-12-31T23:36:02.810Z,7.80
2018-12-31T23:41:08.662Z,7.60
2018-12-31T23:46:14.711Z,7.89
2018-12-31T23:57:17.820Z,7.88
